Aérodrome :
LOGIN :

S'inscrire | Disclaimer

   EN    FR    IT 

 










Légende :    VFR   VFR Marginal   IFR   IFR Intensif   IFR Très Intensif
Visi : 
Plafond : 
>= 8 km
>= 3000ft
5 à 8 km
1000 à 3000 ft
1500m à 5 km
500 à 1000 ft
800 à 1500m
200 à 500 ft
< 800m
< 200 ft
Symboles :   Orages  Brouillard  Fortes neiges  Fortes précipitations  Vent > 20 kt
SIGMETs :   Divers  Orages  Givrage  Turbulence  Onde Orograph.  Cendres Volcan.






- Altitude de l'aérodrome : 240 ft
- Code IATA : VLC


LEVC - Valencia Manises

DERNIER METAR :
  • 270500Z 28004KT 9999 FEW030 05/02 Q1020 NOSIG

METARs EXPIRÉS :
  • 270430Z 30005KT 9999 FEW030 06/02 Q1020 NOSIG
  • 270400Z 27005KT 9999 FEW030 06/02 Q1020 NOSIG
  • 270330Z 29003KT 250V320 9999 FEW030 06/03 Q1020 NOSIG
  • 270300Z 27003KT CAVOK 07/03 Q1020 NOSIG

TAF TAF LEVC
Valide du 27 à 06h jusqu'au 28 à 06h UTC


270500Z 2706/2806 26005KT CAVOK TX25/2713Z TN05/2706Z
BECMG 2709/2711 26014KT
PROB40
TEMPO 2710/2713 27020G30KT
BECMG 2716/2718 30007KT



MET'MAP, la Météo Aéronautique d'un coup d'oeil ! - Copyright ORBIFLY Décembre 2007 - Disclaimer

ORBIFLY MET'MAP TEAM :

Programmation & Développement : Alexandra Zaïnal
Sur une idée originale de : Baudouin d'Aumeries
Assistance à la programmation : Marc-Olivier Méhu
Soutien technique & logistique : Manuel Goepfert

Contact : metmap@orbifly.com




SOURCES & CREDITS :

   NOAA